Terminal Aerodrome Forecast
Issued by NWS Huntsville, AL

Home | Current Version | Previous Version | Text Only | Print | Product List | Glossary On
Versions: 1 2 3 4 5 6 7 8 9 10 11 12 13 14 15 16 17 18 19 20 21 22 23 24 25 26 27 28
000
FTUS44 KHUN 231136
TAFHSV
TAF
KHSV 231136Z 2312/2412 00000KT P6SM FEW250
     FM231500 31005KT P6SM SCT040 SCT250
     FM232100 31007KT P6SM VCTS SCT040CB
     FM240100 VRB02KT P6SM SCT250=

USA.gov is the U.S. government's official web portal to all federal, state and local government web resources and services.